sensor_id;sensor_type;location;lat;lon;timestamp;pressure;altitude;pressure_sealevel;temperature;humidity
66560;BME280;53413;49.878;8.142;2023-03-18T00:02:02;99493.91;;;9.99;100.00
66560;BME280;53413;49.878;8.142;2023-03-18T00:04:27;99487.78;;;9.98;100.00
66560;BME280;53413;49.878;8.142;2023-03-18T00:06:53;99479.41;;;9.92;100.00
66560;BME280;53413;49.878;8.142;2023-03-18T00:09:19;99482.78;;;9.94;100.00
66560;BME280;53413;49.878;8.142;2023-03-18T00:11:45;99483.56;;;9.96;100.00
66560;BME280;53413;49.878;8.142;2023-03-18T00:14:11;99479.25;;;9.95;100.00
66560;BME280;53413;49.878;8.142;2023-03-18T00:16:37;99494.22;;;9.91;100.00
66560;BME280;53413;49.878;8.142;2023-03-18T00:19:04;99494.16;;;9.93;100.00
66560;BME280;53413;49.878;8.142;2023-03-18T00:21:30;99496.97;;;9.88;100.00
66560;BME280;53413;49.878;8.142;2023-03-18T00:23:56;99498.97;;;9.83;100.00
66560;BME280;53413;49.878;8.142;2023-03-18T00:26:23;99501.69;;;9.80;100.00
66560;BME280;53413;49.878;8.142;2023-03-18T00:28:50;99514.78;;;9.80;100.00
66560;BME280;53413;49.878;8.142;2023-03-18T00:31:16;99511.34;;;9.79;100.00
66560;BME280;53413;49.878;8.142;2023-03-18T00:33:41;99504.44;;;9.77;100.00
66560;BME280;53413;49.878;8.142;2023-03-18T00:36:11;99516.63;;;9.78;100.00
66560;BME280;53413;49.878;8.142;2023-03-18T00:38:43;99517.47;;;9.78;100.00
66560;BME280;53413;49.878;8.142;2023-03-18T00:41:10;99504.44;;;9.77;100.00
66560;BME280;53413;49.878;8.142;2023-03-18T00:43:41;99509.69;;;9.77;100.00
66560;BME280;53413;49.878;8.142;2023-03-18T00:46:24;99508.97;;;9.73;100.00
66560;BME280;53413;49.878;8.142;2023-03-18T00:48:51;99514.06;;;9.76;100.00
66560;BME280;53413;49.878;8.142;2023-03-18T00:51:18;99513.19;;;9.76;100.00
66560;BME280;53413;49.878;8.142;2023-03-18T00:53:47;99519.34;;;9.75;100.00
66560;BME280;53413;49.878;8.142;2023-03-18T00:56:14;99524.66;;;9.73;100.00
66560;BME280;53413;49.878;8.142;2023-03-18T00:58:40;99528.06;;;9.75;100.00
66560;BME280;53413;49.878;8.142;2023-03-18T01:01:07;99527.19;;;9.75;100.00
66560;BME280;53413;49.878;8.142;2023-03-18T01:03:33;99527.28;;;9.73;100.00
66560;BME280;53413;49.878;8.142;2023-03-18T01:06:00;99520.28;;;9.74;100.00
66560;BME280;53413;49.878;8.142;2023-03-18T01:08:27;99510.75;;;9.73;100.00
66560;BME280;53413;49.878;8.142;2023-03-18T01:10:53;99510.78;;;9.71;100.00
66560;BME280;53413;49.878;8.142;2023-03-18T01:13:19;99512.63;;;9.69;100.00
66560;BME280;53413;49.878;8.142;2023-03-18T01:15:44;99518.84;;;9.66;100.00
66560;BME280;53413;49.878;8.142;2023-03-18T01:18:10;99505.84;;;9.65;100.00
66560;BME280;53413;49.878;8.142;2023-03-18T01:20:37;99516.34;;;9.63;100.00
66560;BME280;53413;49.878;8.142;2023-03-18T01:23:04;99520.66;;;9.64;100.00
66560;BME280;53413;49.878;8.142;2023-03-18T01:25:29;99507.66;;;9.63;100.00
66560;BME280;53413;49.878;8.142;2023-03-18T01:27:55;99510.28;;;9.63;100.00
66560;BME280;53413;49.878;8.142;2023-03-18T01:30:20;99510.19;;;9.64;100.00
66560;BME280;53413;49.878;8.142;2023-03-18T01:32:47;99495.38;;;9.65;100.00
66560;BME280;53413;49.878;8.142;2023-03-18T01:35:13;99488.31;;;9.67;100.00
66560;BME280;53413;49.878;8.142;2023-03-18T01:37:38;99496.09;;;9.68;100.00
66560;BME280;53413;49.878;8.142;2023-03-18T01:40:06;99502.16;;;9.69;100.00
66560;BME280;53413;49.878;8.142;2023-03-18T01:42:31;99504.72;;;9.70;100.00
66560;BME280;53413;49.878;8.142;2023-03-18T01:45:16;99498.69;;;9.68;100.00
66560;BME280;53413;49.878;8.142;2023-03-18T01:47:44;99503.13;;;9.66;100.00
66560;BME280;53413;49.878;8.142;2023-03-18T01:50:11;99485.88;;;9.62;100.00
66560;BME280;53413;49.878;8.142;2023-03-18T01:52:38;99486.13;;;9.56;100.00
66560;BME280;53413;49.878;8.142;2023-03-18T01:55:11;99495.78;;;9.55;100.00
66560;BME280;53413;49.878;8.142;2023-03-18T01:57:38;99500.25;;;9.52;100.00
66560;BME280;53413;49.878;8.142;2023-03-18T02:00:06;99491.66;;;9.50;100.00
66560;BME280;53413;49.878;8.142;2023-03-18T02:02:35;99487.38;;;9.47;100.00
66560;BME280;53413;49.878;8.142;2023-03-18T02:05:04;99497.00;;;9.47;100.00
66560;BME280;53413;49.878;8.142;2023-03-18T02:07:33;99490.91;;;9.46;100.00
66560;BME280;53413;49.878;8.142;2023-03-18T02:10:02;99496.13;;;9.46;100.00
66560;BME280;53413;49.878;8.142;2023-03-18T02:12:31;99494.69;;;9.39;100.00
66560;BME280;53413;49.878;8.142;2023-03-18T02:14:59;99496.53;;;9.37;100.00
66560;BME280;53413;49.878;8.142;2023-03-18T02:17:29;99495.72;;;9.35;100.00
66560;BME280;53413;49.878;8.142;2023-03-18T02:22:37;99494.91;;;9.34;100.00
66560;BME280;53413;49.878;8.142;2023-03-18T02:28:00;99502.94;;;9.30;100.00
66560;BME280;53413;49.878;8.142;2023-03-18T02:30:40;99500.31;;;9.30;100.00
66560;BME280;53413;49.878;8.142;2023-03-18T02:33:08;99496.13;;;9.26;100.00
66560;BME280;53413;49.878;8.142;2023-03-18T02:35:35;99507.50;;;9.24;100.00
66560;BME280;53413;49.878;8.142;2023-03-18T02:38:01;99506.69;;;9.22;100.00
66560;BME280;53413;49.878;8.142;2023-03-18T02:40:32;99518.94;;;9.22;100.00
66560;BME280;53413;49.878;8.142;2023-03-18T02:43:16;99518.13;;;9.20;100.00
66560;BME280;53413;49.878;8.142;2023-03-18T02:48:22;99545.31;;;9.16;100.00
66560;BME280;53413;49.878;8.142;2023-03-18T02:50:48;99539.25;;;9.15;100.00
66560;BME280;53413;49.878;8.142;2023-03-18T02:53:14;99544.56;;;9.12;100.00
66560;BME280;53413;49.878;8.142;2023-03-18T02:55:40;99537.72;;;9.09;100.00
66560;BME280;53413;49.878;8.142;2023-03-18T02:58:07;99531.69;;;9.07;100.00
66560;BME280;53413;49.878;8.142;2023-03-18T03:00:33;99523.00;;;9.07;100.00
66560;BME280;53413;49.878;8.142;2023-03-18T03:02:59;99522.25;;;9.03;100.00
66560;BME280;53413;49.878;8.142;2023-03-18T03:05:26;99515.41;;;9.01;100.00
66560;BME280;53413;49.878;8.142;2023-03-18T03:07:51;99521.00;;;8.91;100.00
66560;BME280;53413;49.878;8.142;2023-03-18T03:10:17;99522.09;;;8.86;100.00
66560;BME280;53413;49.878;8.142;2023-03-18T03:12:42;99524.72;;;8.86;100.00
66560;BME280;53413;49.878;8.142;2023-03-18T03:15:08;99523.81;;;8.87;100.00
66560;BME280;53413;49.878;8.142;2023-03-18T03:17:34;99523.63;;;8.91;100.00
66560;BME280;53413;49.878;8.142;2023-03-18T03:20:00;99526.13;;;8.95;100.00
66560;BME280;53413;49.878;8.142;2023-03-18T03:22:25;99536.44;;;8.98;100.00
66560;BME280;53413;49.878;8.142;2023-03-18T03:24:52;99533.81;;;8.98;100.00
66560;BME280;53413;49.878;8.142;2023-03-18T03:27:17;99545.94;;;9.00;100.00
66560;BME280;53413;49.878;8.142;2023-03-18T03:29:43;99543.44;;;8.97;100.00
66560;BME280;53413;49.878;8.142;2023-03-18T03:32:09;99541.84;;;8.93;100.00
66560;BME280;53413;49.878;8.142;2023-03-18T03:34:34;99540.13;;;8.92;100.00
66560;BME280;53413;49.878;8.142;2023-03-18T03:37:00;99539.28;;;8.91;100.00
66560;BME280;53413;49.878;8.142;2023-03-18T03:39:25;99537.66;;;8.89;100.00
66560;BME280;53413;49.878;8.142;2023-03-18T03:41:51;99537.94;;;8.81;100.00
66560;BME280;53413;49.878;8.142;2023-03-18T03:44:17;99532.94;;;8.75;100.00
66560;BME280;53413;49.878;8.142;2023-03-18T03:46:42;99538.47;;;8.67;100.00
66560;BME280;53413;49.878;8.142;2023-03-18T03:49:08;99540.53;;;8.59;100.00
66560;BME280;53413;49.878;8.142;2023-03-18T03:51:33;99543.31;;;8.54;100.00
66560;BME280;53413;49.878;8.142;2023-03-18T03:53:58;99541.72;;;8.50;100.00
66560;BME280;53413;49.878;8.142;2023-03-18T03:56:23;99536.81;;;8.41;100.00
66560;BME280;53413;49.878;8.142;2023-03-18T03:58:49;99539.94;;;8.27;100.00
66560;BME280;53413;49.878;8.142;2023-03-18T04:01:14;99534.41;;;8.11;100.00
66560;BME280;53413;49.878;8.142;2023-03-18T04:03:40;99541.88;;;7.96;100.00
66560;BME280;53413;49.878;8.142;2023-03-18T04:06:05;99545.81;;;7.83;100.00
66560;BME280;53413;49.878;8.142;2023-03-18T04:08:31;99541.09;;;7.67;100.00
66560;BME280;53413;49.878;8.142;2023-03-18T04:10:56;99544.28;;;7.50;100.00
66560;BME280;53413;49.878;8.142;2023-03-18T04:13:22;99545.75;;;7.32;100.00
66560;BME280;53413;49.878;8.142;2023-03-18T04:15:48;99539.31;;;7.16;100.00
66560;BME280;53413;49.878;8.142;2023-03-18T04:18:13;99548.47;;;7.01;100.00
66560;BME280;53413;49.878;8.142;2023-03-18T04:20:41;99555.81;;;6.88;100.00
66560;BME280;53413;49.878;8.142;2023-03-18T04:23:06;99553.22;;;6.86;100.00
66560;BME280;53413;49.878;8.142;2023-03-18T04:25:32;99553.00;;;6.94;100.00
66560;BME280;53413;49.878;8.142;2023-03-18T04:27:57;99560.56;;;7.03;100.00
66560;BME280;53413;49.878;8.142;2023-03-18T04:30:22;99558.66;;;7.08;100.00
66560;BME280;53413;49.878;8.142;2023-03-18T04:32:49;99563.69;;;7.15;100.00
66560;BME280;53413;49.878;8.142;2023-03-18T04:35:16;99561.03;;;7.16;100.00
66560;BME280;53413;49.878;8.142;2023-03-18T04:37:42;99549.53;;;7.22;100.00
66560;BME280;53413;49.878;8.142;2023-03-18T04:40:09;99558.88;;;7.29;100.00
66560;BME280;53413;49.878;8.142;2023-03-18T04:42:36;99566.50;;;7.35;100.00
66560;BME280;53413;49.878;8.142;2023-03-18T04:45:02;99568.91;;;7.42;100.00
66560;BME280;53413;49.878;8.142;2023-03-18T04:47:29;99567.31;;;7.37;100.00
66560;BME280;53413;49.878;8.142;2023-03-18T04:49:56;99570.31;;;7.25;100.00
66560;BME280;53413;49.878;8.142;2023-03-18T04:52:22;99564.53;;;7.15;100.00
66560;BME280;53413;49.878;8.142;2023-03-18T04:54:49;99565.78;;;7.03;100.00
66560;BME280;53413;49.878;8.142;2023-03-18T04:57:15;99574.66;;;6.96;100.00
66560;BME280;53413;49.878;8.142;2023-03-18T04:59:41;99577.47;;;6.90;100.00
66560;BME280;53413;49.878;8.142;2023-03-18T05:02:07;99578.53;;;6.83;100.00
66560;BME280;53413;49.878;8.142;2023-03-18T05:04:33;99575.25;;;6.76;100.00
66560;BME280;53413;49.878;8.142;2023-03-18T05:06:58;99571.88;;;6.72;100.00
66560;BME280;53413;49.878;8.142;2023-03-18T05:09:23;99570.19;;;6.71;100.00
66560;BME280;53413;49.878;8.142;2023-03-18T05:11:49;99567.56;;;6.71;100.00
66560;BME280;53413;49.878;8.142;2023-03-18T05:14:15;99562.28;;;6.74;100.00
66560;BME280;53413;49.878;8.142;2023-03-18T05:16:40;99565.56;;;6.81;100.00
66560;BME280;53413;49.878;8.142;2023-03-18T05:19:06;99565.34;;;6.87;100.00
66560;BME280;53413;49.878;8.142;2023-03-18T05:21:34;99567.03;;;6.90;100.00
66560;BME280;53413;49.878;8.142;2023-03-18T05:24:00;99569.53;;;6.93;100.00
66560;BME280;53413;49.878;8.142;2023-03-18T05:26:26;99572.94;;;6.95;100.00
66560;BME280;53413;49.878;8.142;2023-03-18T05:28:51;99573.81;;;6.96;100.00
66560;BME280;53413;49.878;8.142;2023-03-18T05:31:16;99575.47;;;6.98;100.00
66560;BME280;53413;49.878;8.142;2023-03-18T05:33:42;99568.31;;;7.05;100.00
66560;BME280;53413;49.878;8.142;2023-03-18T05:36:08;99575.84;;;7.14;100.00
66560;BME280;53413;49.878;8.142;2023-03-18T05:38:33;99566.97;;;7.20;100.00
66560;BME280;53413;49.878;8.142;2023-03-18T05:40:58;99563.38;;;7.24;100.00
66560;BME280;53413;49.878;8.142;2023-03-18T05:43:24;99569.50;;;7.23;100.00
66560;BME280;53413;49.878;8.142;2023-03-18T05:45:50;99574.78;;;7.21;100.00
66560;BME280;53413;49.878;8.142;2023-03-18T05:48:16;99579.16;;;7.19;100.00
66560;BME280;53413;49.878;8.142;2023-03-18T05:50:42;99576.66;;;7.16;100.00
66560;BME280;53413;49.878;8.142;2023-03-18T05:53:08;99580.25;;;7.12;100.00
66560;BME280;53413;49.878;8.142;2023-03-18T05:55:34;99579.56;;;7.05;100.00
66560;BME280;53413;49.878;8.142;2023-03-18T05:58:00;99578.16;;;6.95;100.00
66560;BME280;53413;49.878;8.142;2023-03-18T06:00:28;99584.59;;;6.83;100.00
66560;BME280;53413;49.878;8.142;2023-03-18T06:02:55;99586.69;;;6.70;100.00
66560;BME280;53413;49.878;8.142;2023-03-18T06:05:21;99586.06;;;6.62;100.00
66560;BME280;53413;49.878;8.142;2023-03-18T06:07:47;99585.47;;;6.52;100.00
66560;BME280;53413;49.878;8.142;2023-03-18T06:10:13;99584.84;;;6.44;100.00
66560;BME280;53413;49.878;8.142;2023-03-18T06:12:39;99584.13;;;6.39;100.00
66560;BME280;53413;49.878;8.142;2023-03-18T06:15:06;99589.50;;;6.32;100.00
66560;BME280;53413;49.878;8.142;2023-03-18T06:17:32;99589.63;;;6.28;100.00
66560;BME280;53413;49.878;8.142;2023-03-18T06:19:58;99594.00;;;6.26;100.00
66560;BME280;53413;49.878;8.142;2023-03-18T06:22:24;99591.47;;;6.24;100.00
66560;BME280;53413;49.878;8.142;2023-03-18T06:24:49;99596.63;;;6.26;100.00
66560;BME280;53413;49.878;8.142;2023-03-18T06:27:14;99597.50;;;6.25;100.00
66560;BME280;53413;49.878;8.142;2023-03-18T06:29:40;99594.00;;;6.26;100.00
66560;BME280;53413;49.878;8.142;2023-03-18T06:32:06;99599.09;;;6.30;100.00
66560;BME280;53413;49.878;8.142;2023-03-18T06:34:32;99605.00;;;6.37;100.00
66560;BME280;53413;49.878;8.142;2023-03-18T06:36:59;99610.94;;;6.41;100.00
66560;BME280;53413;49.878;8.142;2023-03-18T06:39:24;99605.66;;;6.44;100.00
66560;BME280;53413;49.878;8.142;2023-03-18T06:41:49;99613.44;;;6.45;100.00
66560;BME280;53413;49.878;8.142;2023-03-18T06:44:16;99606.22;;;6.55;100.00
66560;BME280;53413;49.878;8.142;2023-03-18T06:46:42;99605.13;;;6.64;100.00
66560;BME280;53413;49.878;8.142;2023-03-18T06:49:07;99605.59;;;6.77;100.00
66560;BME280;53413;49.878;8.142;2023-03-18T06:51:32;99602.63;;;6.91;100.00
66560;BME280;53413;49.878;8.142;2023-03-18T06:53:59;99607.97;;;7.15;100.00
66560;BME280;53413;49.878;8.142;2023-03-18T06:56:24;99604.84;;;7.59;100.00
66560;BME280;53413;49.878;8.142;2023-03-18T06:58:50;99615.00;;;8.20;100.00
66560;BME280;53413;49.878;8.142;2023-03-18T07:01:15;99606.06;;;8.76;100.00
66560;BME280;53413;49.878;8.142;2023-03-18T07:03:41;99610.47;;;9.20;100.00
66560;BME280;53413;49.878;8.142;2023-03-18T07:06:08;99610.28;;;9.47;100.00
66560;BME280;53413;49.878;8.142;2023-03-18T07:08:34;99603.16;;;10.56;100.00
66560;BME280;53413;49.878;8.142;2023-03-18T07:11:00;99596.41;;;15.09;100.00
66560;BME280;53413;49.878;8.142;2023-03-18T07:13:25;99588.66;;;19.16;92.72
66560;BME280;53413;49.878;8.142;2023-03-18T07:15:50;99595.59;;;22.45;69.48
66560;BME280;53413;49.878;8.142;2023-03-18T07:18:16;99592.19;;;24.78;59.39
66560;BME280;53413;49.878;8.142;2023-03-18T07:20:41;99609.53;;;26.01;52.80
66560;BME280;53413;49.878;8.142;2023-03-18T07:23:07;99606.97;;;27.29;46.64
66560;BME280;53413;49.878;8.142;2023-03-18T07:25:34;99611.50;;;28.51;46.36
66560;BME280;53413;49.878;8.142;2023-03-18T07:28:00;99612.03;;;29.87;43.92
66560;BME280;53413;49.878;8.142;2023-03-18T07:30:26;99616.09;;;30.96;41.24
66560;BME280;53413;49.878;8.142;2023-03-18T07:32:52;99610.66;;;31.72;37.30
66560;BME280;53413;49.878;8.142;2023-03-18T07:35:18;99614.38;;;32.58;35.82
66560;BME280;53413;49.878;8.142;2023-03-18T07:37:43;99619.25;;;32.95;34.04
66560;BME280;53413;49.878;8.142;2023-03-18T07:40:10;99614.56;;;33.15;36.04
66560;BME280;53413;49.878;8.142;2023-03-18T07:42:36;99616.50;;;34.04;34.28
66560;BME280;53413;49.878;8.142;2023-03-18T07:45:02;99610.16;;;34.92;32.39
66560;BME280;53413;49.878;8.142;2023-03-18T07:47:27;99611.09;;;35.16;31.85
66560;BME280;53413;49.878;8.142;2023-03-18T07:49:52;99615.66;;;35.77;31.20
66560;BME280;53413;49.878;8.142;2023-03-18T07:52:18;99614.84;;;36.35;29.96
66560;BME280;53413;49.878;8.142;2023-03-18T07:54:43;99610.19;;;36.72;30.08
66560;BME280;53413;49.878;8.142;2023-03-18T07:57:09;99603.19;;;36.64;28.67
66560;BME280;53413;49.878;8.142;2023-03-18T07:59:35;99609.91;;;36.44;29.07
66560;BME280;53413;49.878;8.142;2023-03-18T08:02:02;99612.47;;;36.39;28.38
66560;BME280;53413;49.878;8.142;2023-03-18T08:04:30;99611.56;;;36.21;28.31
66560;BME280;53413;49.878;8.142;2023-03-18T08:06:55;99611.91;;;36.49;28.28
66560;BME280;53413;49.878;8.142;2023-03-18T08:09:22;99618.63;;;36.70;27.33
66560;BME280;53413;49.878;8.142;2023-03-18T08:11:47;99612.94;;;37.41;26.49
66560;BME280;53413;49.878;8.142;2023-03-18T08:14:12;99614.63;;;37.94;25.85
66560;BME280;53413;49.878;8.142;2023-03-18T08:16:38;99620.22;;;38.21;25.67
66560;BME280;53413;49.878;8.142;2023-03-18T08:19:03;99626.28;;;38.62;25.74
66560;BME280;53413;49.878;8.142;2023-03-18T08:21:28;99620.69;;;38.52;24.02
66560;BME280;53413;49.878;8.142;2023-03-18T08:23:54;99632.50;;;38.80;24.05
66560;BME280;53413;49.878;8.142;2023-03-18T08:26:20;99624.63;;;39.06;24.21
66560;BME280;53413;49.878;8.142;2023-03-18T08:28:46;99618.59;;;39.59;23.90
66560;BME280;53413;49.878;8.142;2023-03-18T08:31:11;99621.31;;;39.59;22.69
66560;BME280;53413;49.878;8.142;2023-03-18T08:33:38;99618.72;;;39.19;23.76
66560;BME280;53413;49.878;8.142;2023-03-18T08:36:04;99613.75;;;39.16;23.91
66560;BME280;53413;49.878;8.142;2023-03-18T08:38:30;99613.56;;;38.95;24.04
66560;BME280;53413;49.878;8.142;2023-03-18T08:40:56;99621.47;;;38.13;23.93
66560;BME280;53413;49.878;8.142;2023-03-18T08:43:22;99624.69;;;37.59;24.35
66560;BME280;53413;49.878;8.142;2023-03-18T08:45:54;99632.50;;;34.38;25.80
66560;BME280;53413;49.878;8.142;2023-03-18T08:48:21;99632.56;;;32.11;29.10
66560;BME280;53413;49.878;8.142;2023-03-18T08:50:46;99636.41;;;31.27;30.01
66560;BME280;53413;49.878;8.142;2023-03-18T08:53:12;99631.28;;;31.73;28.87
66560;BME280;53413;49.878;8.142;2023-03-18T08:55:37;99626.69;;;32.20;29.37
66560;BME280;53413;49.878;8.142;2023-03-18T08:58:04;99626.09;;;34.51;26.88
66560;BME280;53413;49.878;8.142;2023-03-18T09:00:30;99630.88;;;36.08;25.31
66560;BME280;53413;49.878;8.142;2023-03-18T09:02:55;99639.31;;;36.54;24.88
66560;BME280;53413;49.878;8.142;2023-03-18T09:05:21;99628.13;;;37.66;24.42
66560;BME280;53413;49.878;8.142;2023-03-18T09:07:47;99628.66;;;36.93;23.62
66560;BME280;53413;49.878;8.142;2023-03-18T09:10:13;99631.22;;;35.15;24.98
66560;BME280;53413;49.878;8.142;2023-03-18T09:12:41;99626.88;;;34.14;26.38
66560;BME280;53413;49.878;8.142;2023-03-18T09:15:08;99627.19;;;33.99;25.99
66560;BME280;53413;49.878;8.142;2023-03-18T09:17:34;99615.69;;;32.29;27.84
66560;BME280;53413;49.878;8.142;2023-03-18T09:20:02;99617.75;;;31.86;28.69
66560;BME280;53413;49.878;8.142;2023-03-18T09:22:28;99614.19;;;32.06;27.22
66560;BME280;53413;49.878;8.142;2023-03-18T09:24:53;99616.06;;;32.52;26.35
66560;BME280;53413;49.878;8.142;2023-03-18T09:27:19;99608.50;;;32.54;27.14
66560;BME280;53413;49.878;8.142;2023-03-18T09:29:44;99605.22;;;32.46;26.68
66560;BME280;53413;49.878;8.142;2023-03-18T09:32:09;99603.97;;;31.54;27.04
66560;BME280;53413;49.878;8.142;2023-03-18T09:34:35;99595.50;;;31.02;27.15
66560;BME280;53413;49.878;8.142;2023-03-18T09:37:00;99595.47;;;31.77;27.03
66560;BME280;53413;49.878;8.142;2023-03-18T09:39:26;99600.97;;;32.63;25.60
66560;BME280;53413;49.878;8.142;2023-03-18T09:44:37;99603.03;;;34.72;24.75
66560;BME280;53413;49.878;8.142;2023-03-18T09:47:12;99603.19;;;33.96;25.28
66560;BME280;53413;49.878;8.142;2023-03-18T09:52:30;99613.78;;;33.08;26.20
66560;BME280;53413;49.878;8.142;2023-03-18T09:57:39;99604.84;;;31.95;26.88
66560;BME280;53413;49.878;8.142;2023-03-18T10:03:00;99615.84;;;30.21;29.20
66560;BME280;53413;49.878;8.142;2023-03-18T10:08:03;99611.81;;;30.74;28.58
66560;BME280;53413;49.878;8.142;2023-03-18T10:10:41;99614.94;;;30.70;28.33
66560;BME280;53413;49.878;8.142;2023-03-18T10:13:24;99603.97;;;30.50;28.02
66560;BME280;53413;49.878;8.142;2023-03-18T10:15:56;99611.22;;;30.50;28.31
66560;BME280;53413;49.878;8.142;2023-03-18T10:18:28;99609.09;;;29.60;29.99
66560;BME280;53413;49.878;8.142;2023-03-18T10:26:29;99608.03;;;26.15;34.07
66560;BME280;53413;49.878;8.142;2023-03-18T10:29:02;99609.06;;;25.21;35.61
66560;BME280;53413;49.878;8.142;2023-03-18T10:31:36;99600.66;;;25.00;36.45
66560;BME280;53413;49.878;8.142;2023-03-18T10:34:11;99604.22;;;24.39;37.99
66560;BME280;53413;49.878;8.142;2023-03-18T10:39:23;99607.00;;;23.67;38.32
66560;BME280;53413;49.878;8.142;2023-03-18T10:41:52;99602.94;;;23.45;39.72
66560;BME280;53413;49.878;8.142;2023-03-18T10:44:32;99602.69;;;23.20;40.57
66560;BME280;53413;49.878;8.142;2023-03-18T10:47:03;99611.50;;;23.02;39.11
66560;BME280;53413;49.878;8.142;2023-03-18T10:49:37;99616.22;;;22.53;39.90
66560;BME280;53413;49.878;8.142;2023-03-18T10:52:17;99606.91;;;21.90;39.98
66560;BME280;53413;49.878;8.142;2023-03-18T10:54:45;99614.34;;;21.57;41.54
66560;BME280;53413;49.878;8.142;2023-03-18T10:57:15;99604.91;;;21.33;41.99
66560;BME280;53413;49.878;8.142;2023-03-18T10:59:41;99607.06;;;20.98;42.08
66560;BME280;53413;49.878;8.142;2023-03-18T11:02:31;99612.47;;;20.77;43.08
66560;BME280;53413;49.878;8.142;2023-03-18T11:07:59;99608.19;;;20.65;42.73
66560;BME280;53413;49.878;8.142;2023-03-18T11:10:33;99607.13;;;20.77;44.41
66560;BME280;53413;49.878;8.142;2023-03-18T11:13:02;99607.50;;;20.63;42.88
66560;BME280;53413;49.878;8.142;2023-03-18T11:15:28;99610.41;;;20.90;43.08
66560;BME280;53413;49.878;8.142;2023-03-18T11:18:00;99612.06;;;21.22;43.68
66560;BME280;53413;49.878;8.142;2023-03-18T11:20:39;99610.78;;;21.27;44.55
66560;BME280;53413;49.878;8.142;2023-03-18T11:23:37;99601.66;;;21.19;43.58
66560;BME280;53413;49.878;8.142;2023-03-18T11:26:43;99603.63;;;21.17;44.59
66560;BME280;53413;49.878;8.142;2023-03-18T11:29:12;99602.25;;;21.33;44.65
66560;BME280;53413;49.878;8.142;2023-03-18T11:31:52;99605.31;;;21.28;43.60
66560;BME280;53413;49.878;8.142;2023-03-18T11:34:21;99599.00;;;21.29;43.70
66560;BME280;53413;49.878;8.142;2023-03-18T11:36:58;99599.03;;;21.59;42.87
66560;BME280;53413;49.878;8.142;2023-03-18T11:39:28;99595.53;;;21.88;42.61
66560;BME280;53413;49.878;8.142;2023-03-18T11:41:57;99585.72;;;21.88;43.67
66560;BME280;53413;49.878;8.142;2023-03-18T11:44:30;99592.16;;;21.86;41.94
66560;BME280;53413;49.878;8.142;2023-03-18T11:47:09;99583.00;;;22.08;41.30
66560;BME280;53413;49.878;8.142;2023-03-18T11:49:37;99585.44;;;22.39;41.09
66560;BME280;53413;49.878;8.142;2023-03-18T11:57:10;99578.00;;;21.85;40.98
66560;BME280;53413;49.878;8.142;2023-03-18T12:02:29;99572.41;;;20.88;41.88
66560;BME280;53413;49.878;8.142;2023-03-18T12:10:46;99562.91;;;20.96;42.29
66560;BME280;53413;49.878;8.142;2023-03-18T12:13:32;99563.38;;;21.20;42.05
66560;BME280;53413;49.878;8.142;2023-03-18T12:23:59;99552.31;;;21.55;41.68
66560;BME280;53413;49.878;8.142;2023-03-18T12:26:46;99558.94;;;21.70;44.27
66560;BME280;53413;49.878;8.142;2023-03-18T12:46:17;99544.72;;;20.70;44.53
66560;BME280;53413;49.878;8.142;2023-03-18T12:48:52;99554.47;;;20.81;45.31
66560;BME280;53413;49.878;8.142;2023-03-18T12:51:29;99548.50;;;21.28;44.29
66560;BME280;53413;49.878;8.142;2023-03-18T12:54:09;99551.75;;;21.51;44.29
66560;BME280;53413;49.878;8.142;2023-03-18T12:56:43;99554.84;;;21.46;43.80
66560;BME280;53413;49.878;8.142;2023-03-18T12:59:20;99551.88;;;21.30;42.85
66560;BME280;53413;49.878;8.142;2023-03-18T13:04:35;99551.88;;;21.30;42.97
66560;BME280;53413;49.878;8.142;2023-03-18T13:09:44;99550.34;;;21.37;45.28
66560;BME280;53413;49.878;8.142;2023-03-18T13:12:23;99552.00;;;21.38;46.10
66560;BME280;53413;49.878;8.142;2023-03-18T13:19:50;99538.25;;;20.94;45.77
66560;BME280;53413;49.878;8.142;2023-03-18T13:31:15;99534.03;;;21.01;44.81
66560;BME280;53413;49.878;8.142;2023-03-18T13:37:11;99537.56;;;21.31;46.90
66560;BME280;53413;49.878;8.142;2023-03-18T13:40:12;99538.69;;;21.18;46.10
66560;BME280;53413;49.878;8.142;2023-03-18T13:42:42;99536.56;;;21.12;46.43
66560;BME280;53413;49.878;8.142;2023-03-18T13:45:23;99533.22;;;21.10;46.47
66560;BME280;53413;49.878;8.142;2023-03-18T13:48:31;99541.59;;;21.05;46.68
66560;BME280;53413;49.878;8.142;2023-03-18T13:50:58;99534.88;;;20.91;47.21
66560;BME280;53413;49.878;8.142;2023-03-18T13:53:30;99535.44;;;20.85;47.52
66560;BME280;53413;49.878;8.142;2023-03-18T13:58:44;99540.16;;;20.82;47.79
66560;BME280;53413;49.878;8.142;2023-03-18T14:04:00;99528.81;;;20.80;47.44
66560;BME280;53413;49.878;8.142;2023-03-18T14:12:01;99524.53;;;21.67;46.34
66560;BME280;53413;49.878;8.142;2023-03-18T14:20:35;99525.94;;;21.22;46.98
66560;BME280;53413;49.878;8.142;2023-03-18T14:23:32;99517.50;;;21.07;45.88
66560;BME280;53413;49.878;8.142;2023-03-18T14:26:00;99519.59;;;20.94;45.78
66560;BME280;53413;49.878;8.142;2023-03-18T14:28:26;99512.22;;;20.66;46.28
66560;BME280;53413;49.878;8.142;2023-03-18T14:42:06;99502.91;;;20.91;46.37
66560;BME280;53413;49.878;8.142;2023-03-18T14:44:51;99502.53;;;21.16;45.81
66560;BME280;53413;49.878;8.142;2023-03-18T14:47:22;99498.00;;;21.36;43.32
66560;BME280;53413;49.878;8.142;2023-03-18T14:49:59;99496.47;;;21.43;43.70
66560;BME280;53413;49.878;8.142;2023-03-18T14:52:33;99497.34;;;21.63;44.47
66560;BME280;53413;49.878;8.142;2023-03-18T14:55:04;99493.91;;;21.91;44.46
66560;BME280;53413;49.878;8.142;2023-03-18T14:57:31;99495.84;;;21.89;43.56
66560;BME280;53413;49.878;8.142;2023-03-18T14:59:58;99488.56;;;21.81;43.82
66560;BME280;53413;49.878;8.142;2023-03-18T15:02:27;99495.47;;;21.54;44.26
66560;BME280;53413;49.878;8.142;2023-03-18T15:04:55;99503.63;;;21.23;43.33
66560;BME280;53413;49.878;8.142;2023-03-18T15:07:34;99498.94;;;20.76;44.80
66560;BME280;53413;49.878;8.142;2023-03-18T15:12:31;99491.28;;;20.11;45.93